createdAt,value
2022-09-20T00:00:00.568Z,95.43
2022-09-20T00:01:00.627Z,94.51
2022-09-20T00:02:00.527Z,95.02
2022-09-20T00:03:00.502Z,94.60
2022-09-20T00:04:00.504Z,94.60
2022-09-20T00:05:00.531Z,94.71
2022-09-20T00:06:00.464Z,94.65
2022-09-20T00:07:00.457Z,94.40
2022-09-20T00:08:00.458Z,94.81
2022-09-20T00:09:00.437Z,94.65
2022-09-20T00:10:00.431Z,94.92
2022-09-20T00:11:00.466Z,94.45
2022-09-20T00:12:00.405Z,94.81
2022-09-20T00:13:00.383Z,94.85
2022-09-20T00:14:00.417Z,94.34
2022-09-20T00:15:00.372Z,94.65
2022-09-20T00:16:00.368Z,94.71
2022-09-20T00:17:00.466Z,95.02
2022-09-20T00:18:00.328Z,94.75
2022-09-20T00:19:00.332Z,94.45
2022-09-20T00:20:00.317Z,94.55
2022-09-20T00:21:00.339Z,94.85
2022-09-20T00:22:00.305Z,94.45
2022-09-20T00:23:00.290Z,94.65
2022-09-20T00:24:00.318Z,94.75
2022-09-20T00:25:00.257Z,94.85
2022-09-20T00:26:00.246Z,94.70
2022-09-20T00:27:00.258Z,94.70
2022-09-20T00:28:00.228Z,94.90
2022-09-20T00:29:00.224Z,95.00
2022-09-20T00:30:00.203Z,95.00
2022-09-20T00:31:00.189Z,94.80
2022-09-20T00:32:00.297Z,94.49
2022-09-20T00:33:00.175Z,94.75
2022-09-20T00:34:00.173Z,95.00
2022-09-20T00:35:00.142Z,94.70
2022-09-20T00:36:00.115Z,94.39
2022-09-20T00:37:00.110Z,94.80
2022-09-20T00:38:00.162Z,95.00
2022-09-20T00:39:00.136Z,94.70
2022-09-20T00:40:00.173Z,95.41
2022-09-20T00:41:00.065Z,94.59
2022-09-20T00:42:00.071Z,94.80
2022-09-20T00:43:00.050Z,95.06
2022-09-20T00:44:00.070Z,94.80
2022-09-20T00:45:00.097Z,94.80
2022-09-20T00:46:00.054Z,94.59
2022-09-20T00:47:00.000Z,95.00
2022-09-20T00:48:00.002Z,95.00
2022-09-20T00:48:59.993Z,95.41
2022-09-20T00:50:00.010Z,95.00
2022-09-20T00:50:59.979Z,95.21
2022-09-20T00:51:59.936Z,95.10
2022-09-20T00:52:59.942Z,94.70
2022-09-20T00:53:59.930Z,94.70
2022-09-20T00:54:59.907Z,94.80
2022-09-20T00:55:59.915Z,94.80
2022-09-20T00:56:59.954Z,94.59
2022-09-20T00:57:59.908Z,94.80
2022-09-20T00:58:59.868Z,94.49
2022-09-20T00:59:59.868Z,94.59
2022-09-20T01:00:59.947Z,94.49
2022-09-20T01:01:59.907Z,94.45
2022-09-20T01:02:59.836Z,94.45
2022-09-20T01:03:59.889Z,94.49
2022-09-20T01:04:59.794Z,94.90
2022-09-20T01:05:59.784Z,94.90
2022-09-20T01:06:59.767Z,94.90
2022-09-20T01:07:59.764Z,94.45
2022-09-20T01:08:59.758Z,94.59
2022-09-20T01:09:59.729Z,94.70
2022-09-20T01:10:59.738Z,94.59
2022-09-20T01:11:59.709Z,94.49
2022-09-20T01:12:59.751Z,94.59
2022-09-20T01:13:59.702Z,94.80
2022-09-20T01:14:59.671Z,94.18
2022-09-20T01:15:59.651Z,94.70
2022-09-20T01:16:59.723Z,95.00
2022-09-20T01:17:59.668Z,94.59
2022-09-20T01:18:59.654Z,94.80
2022-09-20T01:19:59.631Z,94.90
2022-09-20T01:20:59.601Z,94.59
2022-09-20T01:21:59.589Z,94.49
2022-09-20T01:22:59.578Z,94.39
2022-09-20T01:23:59.602Z,94.59
2022-09-20T01:24:59.696Z,94.49
2022-09-20T01:25:59.540Z,94.49
2022-09-20T01:26:59.545Z,94.34
2022-09-20T01:27:59.543Z,94.80
2022-09-20T01:28:59.630Z,95.00
2022-09-20T01:29:59.507Z,94.80
2022-09-20T01:30:59.500Z,94.80
2022-09-20T01:31:59.607Z,94.90
2022-09-20T01:32:59.488Z,94.80
2022-09-20T01:33:59.494Z,94.90
2022-09-20T01:34:59.458Z,94.80
2022-09-20T01:35:59.447Z,94.90
2022-09-20T01:36:59.414Z,95.00
2022-09-20T01:37:59.409Z,94.80
2022-09-20T01:38:59.547Z,95.10
2022-09-20T01:39:59.440Z,94.70
2022-09-20T01:40:59.398Z,94.80
2022-09-20T01:41:59.370Z,94.80
2022-09-20T01:42:59.342Z,94.84
2022-09-20T01:43:59.361Z,94.90
2022-09-20T01:44:59.346Z,95.05
2022-09-20T01:45:59.394Z,94.90
2022-09-20T01:46:59.319Z,94.80
2022-09-20T01:47:59.306Z,94.80
2022-09-20T01:48:59.297Z,94.90
2022-09-20T01:49:59.277Z,94.43
2022-09-20T01:50:59.252Z,94.90
2022-09-20T01:51:59.267Z,94.90
2022-09-20T01:52:59.314Z,94.95
2022-09-20T01:53:59.257Z,94.84
2022-09-20T01:54:59.236Z,94.95
2022-09-20T01:55:59.205Z,94.84
2022-09-20T01:56:59.193Z,94.95
2022-09-20T01:57:59.177Z,94.74
2022-09-20T01:59:19.817Z,94.54
2022-09-20T02:00:00.150Z,94.84
2022-09-20T02:00:59.235Z,94.74
2022-09-20T02:01:59.165Z,95.05
2022-09-20T02:02:59.122Z,95.25
2022-09-20T02:03:59.129Z,94.95
2022-09-20T02:04:59.229Z,95.36
2022-09-20T02:05:59.111Z,95.36
2022-09-20T02:06:59.097Z,94.54
2022-09-20T02:07:59.070Z,94.84
2022-09-20T02:08:59.107Z,94.95
2022-09-20T02:09:59.044Z,94.95
2022-09-20T02:10:59.028Z,95.50
2022-09-20T02:11:59.055Z,95.05
2022-09-20T02:12:59.012Z,95.46
2022-09-20T02:13:59.015Z,95.09
2022-09-20T02:14:58.981Z,95.09
2022-09-20T02:15:58.988Z,95.36
2022-09-20T02:16:59.038Z,95.29
2022-09-20T02:17:58.941Z,95.36
2022-09-20T02:18:58.962Z,95.05
2022-09-20T02:19:58.928Z,95.29
2022-09-20T02:20:58.905Z,95.50
2022-09-20T02:21:58.926Z,95.50
2022-09-20T02:22:58.945Z,95.36
2022-09-20T02:23:58.931Z,95.40
2022-09-20T02:24:58.868Z,95.46
2022-09-20T02:25:58.846Z,95.25
2022-09-20T02:26:58.838Z,95.56
2022-09-20T02:27:58.822Z,95.36
2022-09-20T02:28:58.907Z,95.50
2022-09-20T02:29:58.805Z,95.87
2022-09-20T02:30:58.820Z,95.36
2022-09-20T02:31:58.861Z,95.36
2022-09-20T02:32:58.770Z,95.70
2022-09-20T02:33:58.789Z,95.50
2022-09-20T02:34:58.781Z,95.40
2022-09-20T02:35:58.742Z,95.50
2022-09-20T02:36:58.743Z,95.70
2022-09-20T02:37:58.728Z,96.12
2022-09-20T02:38:58.759Z,96.12
2022-09-20T02:39:58.775Z,96.17
2022-09-20T02:40:58.764Z,96.28
2022-09-20T02:41:58.686Z,95.87
2022-09-20T02:42:58.664Z,96.01
2022-09-20T02:43:58.673Z,95.76
2022-09-20T02:44:58.648Z,95.76
2022-09-20T02:45:58.697Z,95.97
2022-09-20T02:46:58.623Z,95.76
2022-09-20T02:47:58.637Z,95.76
2022-09-20T02:48:58.603Z,95.66
2022-09-20T02:49:58.634Z,95.76
2022-09-20T02:50:58.647Z,95.87
2022-09-20T02:51:58.552Z,95.76
2022-09-20T02:52:58.583Z,95.76
2022-09-20T02:53:58.577Z,95.66
2022-09-20T02:54:58.593Z,95.66
2022-09-20T02:55:58.555Z,95.66
2022-09-20T02:56:58.497Z,95.87
2022-09-20T02:57:58.494Z,95.87
2022-09-20T02:58:58.839Z,95.76
2022-09-20T02:59:58.515Z,95.66
2022-09-20T03:00:58.515Z,95.66
2022-09-20T03:01:58.527Z,96.22
2022-09-20T03:02:58.436Z,96.28
2022-09-20T03:03:58.440Z,96.17
2022-09-20T03:04:58.461Z,96.07
2022-09-20T03:05:58.399Z,96.07
2022-09-20T03:06:58.387Z,96.28
2022-09-20T03:07:58.375Z,96.28
2022-09-20T03:08:58.378Z,96.17
2022-09-20T03:09:58.357Z,96.22
2022-09-20T03:10:58.345Z,96.22
2022-09-20T03:11:58.467Z,95.70
2022-09-20T03:12:58.323Z,95.87
2022-09-20T03:13:58.348Z,96.01
2022-09-20T03:14:58.301Z,96.32
2022-09-20T03:15:58.297Z,96.79
2022-09-20T03:16:58.394Z,96.38
2022-09-20T03:17:58.316Z,96.48
2022-09-20T03:18:58.285Z,96.79
2022-09-20T03:19:58.260Z,96.28
2022-09-20T03:20:58.235Z,96.07
2022-09-20T03:21:58.231Z,95.97
2022-09-20T03:22:58.206Z,96.07
2022-09-20T03:23:58.336Z,95.66
2022-09-20T03:24:58.192Z,95.97
2022-09-20T03:25:58.190Z,95.97
2022-09-20T03:26:58.181Z,96.17
2022-09-20T03:27:58.169Z,95.97
2022-09-20T03:28:58.211Z,96.07
2022-09-20T03:29:58.126Z,96.17
2022-09-20T03:30:58.133Z,95.87
2022-09-20T03:31:58.298Z,95.76
2022-09-20T03:32:58.110Z,96.07
2022-09-20T03:33:58.107Z,96.07
2022-09-20T03:34:58.076Z,96.07
2022-09-20T03:35:58.186Z,96.28
2022-09-20T03:36:58.050Z,96.28
2022-09-20T03:37:58.057Z,95.97
2022-09-20T03:38:58.061Z,95.76
2022-09-20T03:39:58.108Z,95.87
2022-09-20T03:40:58.019Z,95.87
2022-09-20T03:41:57.991Z,96.17
2022-09-20T03:42:57.983Z,96.07
2022-09-20T03:43:58.184Z,96.58
2022-09-20T03:44:57.977Z,96.38
2022-09-20T03:45:58.035Z,96.48
2022-09-20T03:46:57.960Z,96.58
2022-09-20T03:47:57.917Z,96.28
2022-09-20T03:48:57.938Z,96.38
2022-09-20T03:49:57.901Z,96.54
2022-09-20T03:50:57.905Z,96.17
2022-09-20T03:51:57.962Z,96.48
2022-09-20T03:52:57.873Z,96.28
2022-09-20T03:53:57.882Z,96.23
2022-09-20T03:54:57.845Z,96.17
2022-09-20T03:55:57.921Z,96.23
2022-09-20T03:56:57.825Z,96.33
2022-09-20T03:57:57.809Z,96.03
2022-09-20T03:58:57.847Z,96.23
2022-09-20T03:59:57.808Z,96.23
2022-09-20T04:00:57.799Z,96.23
2022-09-20T04:01:57.837Z,96.13
2022-09-20T04:02:57.765Z,96.23
2022-09-20T04:03:57.958Z,96.23
2022-09-20T04:04:57.719Z,96.17
2022-09-20T04:05:57.726Z,96.13
2022-09-20T04:06:57.732Z,96.54
2022-09-20T04:07:57.705Z,96.44
2022-09-20T04:08:57.718Z,96.33
2022-09-20T04:09:57.680Z,96.64
2022-09-20T04:10:57.648Z,97.05
2022-09-20T04:11:57.647Z,96.95
2022-09-20T04:12:57.628Z,96.95
2022-09-20T04:13:57.765Z,97.05
2022-09-20T04:14:57.649Z,97.05
2022-09-20T04:15:57.643Z,96.84
2022-09-20T04:16:57.670Z,96.95
2022-09-20T04:17:57.602Z,97.05
2022-09-20T04:18:57.593Z,96.64
2022-09-20T04:19:57.572Z,96.54
2022-09-20T04:20:57.600Z,96.54
2022-09-20T04:21:57.555Z,96.95
2022-09-20T04:22:57.520Z,96.95
2022-09-20T04:23:57.524Z,96.95
2022-09-20T04:24:57.506Z,96.84
2022-09-20T04:25:57.491Z,97.66
2022-09-20T04:26:57.489Z,97.15
2022-09-20T04:27:57.505Z,97.00
2022-09-20T04:28:57.500Z,97.15
2022-09-20T04:29:57.511Z,97.87
2022-09-20T04:30:57.426Z,97.15
2022-09-20T04:31:57.482Z,97.05
2022-09-20T04:32:57.403Z,96.44
2022-09-20T04:33:57.421Z,97.62
2022-09-20T04:34:57.401Z,97.05
2022-09-20T04:35:57.363Z,96.95
2022-09-20T04:36:57.363Z,96.64
2022-09-20T04:37:57.346Z,96.84
2022-09-20T04:38:57.357Z,96.84
2022-09-20T04:39:57.350Z,96.95
2022-09-20T04:40:57.426Z,96.95
2022-09-20T04:41:57.310Z,97.66
2022-09-20T04:42:57.291Z,97.46
2022-09-20T04:43:57.300Z,97.46
2022-09-20T04:44:57.264Z,97.66
2022-09-20T04:45:57.326Z,97.46
2022-09-20T04:46:57.313Z,97.56
2022-09-20T04:47:57.247Z,97.25
2022-09-20T04:48:57.257Z,97.46
2022-09-20T04:49:57.223Z,97.77
2022-09-20T04:50:57.198Z,97.46
2022-09-20T04:51:57.185Z,97.46
2022-09-20T04:52:57.174Z,97.25
2022-09-20T04:53:57.257Z,97.56
2022-09-20T04:54:57.167Z,96.95
2022-09-20T04:55:57.146Z,97.56
2022-09-20T04:56:57.139Z,97.56
2022-09-20T04:57:57.127Z,96.95
2022-09-20T04:58:57.131Z,96.95
2022-09-20T04:59:57.115Z,96.59
2022-09-20T05:00:57.132Z,96.84
2022-09-20T05:01:57.127Z,96.84
2022-09-20T05:02:57.055Z,96.95
2022-09-20T05:03:57.081Z,96.95
2022-09-20T05:04:57.085Z,96.84
2022-09-20T05:05:57.024Z,96.84
2022-09-20T05:06:57.012Z,96.74
2022-09-20T05:07:57.003Z,96.84
2022-09-20T05:08:58.991Z,96.95
2022-09-20T05:09:56.972Z,96.95
2022-09-20T05:10:57.050Z,96.59
2022-09-20T05:11:56.959Z,96.74
2022-09-20T05:12:56.951Z,96.59
2022-09-20T05:13:56.952Z,96.91
2022-09-20T05:14:56.947Z,96.59
2022-09-20T05:15:56.909Z,96.59
2022-09-20T05:16:57.014Z,96.80
2022-09-20T05:17:56.904Z,96.59
2022-09-20T05:18:56.920Z,96.91
2022-09-20T05:19:56.880Z,96.49
2022-09-20T05:20:56.891Z,96.59
2022-09-20T05:21:56.850Z,96.59
2022-09-20T05:22:56.845Z,96.39
2022-09-20T05:23:56.876Z,96.91
2022-09-20T05:24:56.886Z,96.80
2022-09-20T05:25:56.831Z,96.91
2022-09-20T05:26:56.789Z,96.91
2022-09-20T05:27:56.767Z,96.91
2022-09-20T05:28:56.786Z,97.00
2022-09-20T05:29:56.762Z,96.70
2022-09-20T05:30:56.889Z,96.91
2022-09-20T05:31:56.797Z,96.59
2022-09-20T05:32:56.722Z,96.59
2022-09-20T05:33:56.728Z,96.34
2022-09-20T05:34:56.797Z,96.45
2022-09-20T05:35:56.702Z,96.19
2022-09-20T05:36:56.663Z,96.55
2022-09-20T05:37:56.666Z,96.59
2022-09-20T05:38:58.057Z,96.14
2022-09-20T05:39:56.655Z,96.14
2022-09-20T05:40:56.628Z,96.66
2022-09-20T05:41:56.703Z,96.25
2022-09-20T05:42:56.613Z,96.04
2022-09-20T05:43:56.617Z,96.14
2022-09-20T05:44:56.599Z,96.14
2022-09-20T05:45:56.612Z,96.25
2022-09-20T05:46:56.598Z,96.25
2022-09-20T05:47:56.539Z,96.14
2022-09-20T05:48:56.558Z,96.14
2022-09-20T05:49:56.523Z,96.25
2022-09-20T05:50:57.798Z,96.04
2022-09-20T05:51:56.540Z,96.25
2022-09-20T05:52:56.486Z,96.20
2022-09-20T05:53:56.492Z,96.10
2022-09-20T05:54:56.468Z,96.34
2022-09-20T05:55:56.449Z,96.34
2022-09-20T05:56:56.430Z,96.34
2022-09-20T05:57:56.578Z,96.25
2022-09-20T05:58:56.438Z,95.94
2022-09-20T05:59:56.399Z,95.73
2022-09-20T06:00:56.444Z,96.04
2022-09-20T06:01:56.417Z,96.14
2022-09-20T06:02:56.364Z,96.61
2022-09-20T06:03:56.386Z,96.20
2022-09-20T06:04:56.372Z,96.25
2022-09-20T06:05:56.333Z,96.30
2022-09-20T06:06:56.317Z,96.20
2022-09-20T06:07:56.327Z,96.41
2022-09-20T06:08:56.310Z,96.41
2022-09-20T06:09:56.290Z,96.41
2022-09-20T06:10:56.286Z,96.41
2022-09-20T06:11:56.272Z,96.41
2022-09-20T06:12:56.280Z,96.41
2022-09-20T06:13:56.258Z,96.71
2022-09-20T06:14:56.234Z,96.00
2022-09-20T06:15:56.266Z,95.59
2022-09-20T06:16:56.214Z,95.69
2022-09-20T06:17:56.202Z,95.89
2022-09-20T06:18:56.241Z,95.85
2022-09-20T06:19:56.186Z,95.95
2022-09-20T06:20:56.200Z,96.05
2022-09-20T06:21:56.153Z,96.05
2022-09-20T06:22:56.135Z,95.23
2022-09-20T06:23:56.170Z,95.44
2022-09-20T06:24:56.119Z,95.34
2022-09-20T06:25:56.125Z,95.44
2022-09-20T06:26:56.092Z,95.13
2022-09-20T06:27:56.075Z,95.44
2022-09-20T06:28:58.382Z,94.82
2022-09-20T06:29:56.062Z,94.93
2022-09-20T06:30:56.121Z,94.93
2022-09-20T06:31:56.041Z,95.23
2022-09-20T06:32:56.029Z,95.13
2022-09-20T06:33:56.068Z,94.82
2022-09-20T06:34:56.000Z,94.89
2022-09-20T06:35:58.995Z,94.82
2022-09-20T06:36:55.980Z,95.44
2022-09-20T06:37:55.961Z,94.93
2022-09-20T06:38:56.060Z,94.78
2022-09-20T06:39:56.129Z,94.32
2022-09-20T06:40:55.929Z,94.32
2022-09-20T06:41:55.913Z,94.62
2022-09-20T06:42:55.907Z,94.89
2022-09-20T06:43:55.920Z,94.48
2022-09-20T06:44:55.915Z,94.48
2022-09-20T06:45:55.918Z,94.78
2022-09-20T06:46:55.872Z,94.93
2022-09-20T06:47:55.854Z,94.48
2022-09-20T06:48:55.903Z,94.58
2022-09-20T06:49:55.821Z,94.48
2022-09-20T06:50:55.832Z,94.68
2022-09-20T06:51:55.829Z,94.48
2022-09-20T06:52:55.789Z,94.89
2022-09-20T06:53:55.812Z,94.58
2022-09-20T06:54:55.769Z,94.78
2022-09-20T06:55:55.771Z,94.58
2022-09-20T06:56:55.742Z,93.76
2022-09-20T06:57:55.735Z,93.76
2022-09-20T06:58:55.781Z,93.96
2022-09-20T06:59:55.727Z,93.86
2022-09-20T07:00:55.917Z,93.96
2022-09-20T07:01:55.745Z,93.76
2022-09-20T07:02:55.686Z,94.48
2022-09-20T07:03:55.679Z,93.76
2022-09-20T07:04:55.667Z,93.66
2022-09-20T07:05:55.640Z,93.86
2022-09-20T07:06:55.643Z,93.66
2022-09-20T07:07:55.643Z,93.76
2022-09-20T07:08:55.693Z,93.86
2022-09-20T07:09:55.599Z,93.76
2022-09-20T07:10:55.618Z,93.86
2022-09-20T07:11:55.609Z,93.76
2022-09-20T07:12:55.560Z,93.76
2022-09-20T07:13:55.568Z,93.76
2022-09-20T07:14:55.584Z,94.17
2022-09-20T07:15:55.525Z,93.96
2022-09-20T07:16:55.589Z,93.86
2022-09-20T07:17:55.562Z,93.96
2022-09-20T07:18:55.523Z,93.86
2022-09-20T07:19:55.481Z,93.96
2022-09-20T07:20:55.470Z,94.27
2022-09-20T07:21:55.463Z,94.32
2022-09-20T07:22:55.482Z,94.01
2022-09-20T07:23:55.561Z,94.32
2022-09-20T07:24:55.429Z,93.70
2022-09-20T07:25:55.447Z,94.11
2022-09-20T07:26:55.413Z,93.91
2022-09-20T07:27:55.410Z,93.70
2022-09-20T07:28:55.449Z,93.80
2022-09-20T07:29:55.369Z,94.01
2022-09-20T07:30:55.389Z,93.91
2022-09-20T07:31:55.355Z,93.91
2022-09-20T07:32:55.350Z,93.70
2022-09-20T07:33:55.344Z,94.01
2022-09-20T07:34:55.350Z,93.91
2022-09-20T07:35:55.317Z,93.80
2022-09-20T07:36:55.337Z,94.01
2022-09-20T07:37:55.281Z,94.89
2022-09-20T07:38:55.348Z,94.78
2022-09-20T07:39:55.282Z,94.68
2022-09-20T07:40:55.267Z,94.17
2022-09-20T07:41:55.233Z,94.27
2022-09-20T07:42:56.322Z,94.17
2022-09-20T07:43:55.273Z,94.48
2022-09-20T07:44:55.198Z,94.27
2022-09-20T07:45:55.251Z,94.27
2022-09-20T07:46:55.217Z,94.58
2022-09-20T07:47:55.182Z,94.58
2022-09-20T07:48:55.168Z,94.53
2022-09-20T07:49:55.148Z,94.74
2022-09-20T07:50:55.154Z,94.58
2022-09-20T07:51:55.129Z,93.62
2022-09-20T07:52:55.133Z,93.92
2022-09-20T07:53:55.188Z,93.92
2022-09-20T07:54:55.087Z,93.31
2022-09-20T07:55:55.087Z,93.31
2022-09-20T07:56:55.061Z,93.62
2022-09-20T07:57:55.152Z,93.57
2022-09-20T07:58:55.054Z,93.62
2022-09-20T07:59:55.070Z,93.26
2022-09-20T08:00:55.040Z,93.88
2022-09-20T08:01:55.073Z,93.57
2022-09-20T08:02:55.004Z,93.98
2022-09-20T08:03:55.018Z,93.88
2022-09-20T08:04:54.970Z,93.57
2022-09-20T08:05:54.980Z,93.37
2022-09-20T08:06:54.998Z,93.43
2022-09-20T08:07:54.989Z,92.96
2022-09-20T08:08:55.017Z,93.02
2022-09-20T08:09:54.932Z,92.81
2022-09-20T08:10:54.976Z,92.91
2022-09-20T08:11:55.147Z,93.12
2022-09-20T08:14:11.366Z,92.20
2022-09-20T08:14:55.860Z,92.57
2022-09-20T08:15:54.997Z,91.75
2022-09-20T08:16:54.915Z,92.36
2022-09-20T08:17:54.841Z,92.26
2022-09-20T08:18:54.870Z,92.26
2022-09-20T08:19:54.807Z,92.36
2022-09-20T08:20:55.083Z,92.22
2022-09-20T08:21:54.892Z,91.71
2022-09-20T08:23:19.381Z,91.20
2022-09-20T08:23:55.840Z,90.99
2022-09-20T08:24:54.778Z,91.30
2022-09-20T08:25:54.849Z,90.99
2022-09-20T08:26:54.732Z,90.48
2022-09-20T08:27:54.716Z,91.16
2022-09-20T08:28:54.803Z,90.64
2022-09-20T08:29:54.745Z,90.79
2022-09-20T08:30:54.681Z,90.24
2022-09-20T08:31:54.773Z,89.53
2022-09-20T08:32:54.678Z,89.87
2022-09-20T08:33:54.710Z,89.73
2022-09-20T08:34:54.660Z,90.03
2022-09-20T08:35:57.775Z,89.73
2022-09-20T08:36:54.618Z,89.99
2022-09-20T08:37:55.219Z,89.99
2022-09-20T08:39:57.640Z,89.28
2022-09-20T08:40:54.595Z,88.98
2022-09-20T08:41:54.599Z,88.98
2022-09-20T08:42:54.548Z,89.75
2022-09-20T08:43:54.659Z,89.34
2022-09-20T08:44:58.172Z,89.24
2022-09-20T08:45:54.609Z,88.42
2022-09-20T08:46:54.501Z,88.63
2022-09-20T08:47:58.495Z,88.59
2022-09-20T08:48:54.501Z,88.18
2022-09-20T08:49:57.432Z,87.67
2022-09-20T08:50:54.467Z,87.73
2022-09-20T08:51:54.507Z,87.12
2022-09-20T08:53:00.208Z,86.82
2022-09-20T08:53:55.440Z,86.92
2022-09-20T08:54:54.445Z,86.71
2022-09-20T08:55:54.393Z,85.60
2022-09-20T08:56:54.374Z,85.39
2022-09-20T08:57:54.374Z,85.46
2022-09-20T08:58:54.411Z,85.55
2022-09-20T08:59:54.349Z,85.15
2022-09-20T09:00:54.419Z,85.86
2022-09-20T09:01:54.377Z,85.55
2022-09-20T09:02:54.315Z,85.35
2022-09-20T09:03:54.376Z,85.46
2022-09-20T09:04:54.295Z,85.41
2022-09-20T09:05:54.298Z,84.91
2022-09-20T09:06:54.266Z,84.80
2022-09-20T09:07:54.269Z,85.01
2022-09-20T09:08:54.260Z,85.11
2022-09-20T09:09:54.256Z,83.89
2022-09-20T09:10:54.323Z,83.65
2022-09-20T09:11:54.242Z,83.59
2022-09-20T09:12:54.209Z,82.94
2022-09-20T09:13:54.282Z,83.54
2022-09-20T09:14:54.174Z,83.14
2022-09-20T09:15:54.185Z,83.31
2022-09-20T09:16:54.179Z,83.20
2022-09-20T09:17:54.148Z,82.50
2022-09-20T09:18:54.153Z,81.78
2022-09-20T09:19:54.147Z,82.05
2022-09-20T09:20:54.123Z,82.35
2022-09-20T09:21:54.100Z,82.92
2022-09-20T09:22:54.098Z,83.12
2022-09-20T09:23:54.101Z,82.21
2022-09-20T09:24:54.077Z,81.67
2022-09-20T09:25:54.115Z,80.76
2022-09-20T09:26:54.053Z,80.86
2022-09-20T09:27:54.029Z,80.41
2022-09-20T09:28:54.044Z,80.38
2022-09-20T09:29:54.026Z,79.57
2022-09-20T09:30:53.988Z,78.52
2022-09-20T09:31:54.062Z,78.62
2022-09-20T09:32:53.975Z,78.58
2022-09-20T09:33:53.975Z,77.57
2022-09-20T09:34:53.953Z,76.72
2022-09-20T09:35:53.979Z,76.32
2022-09-20T09:36:53.926Z,75.41
2022-09-20T09:37:53.916Z,76.28
2022-09-20T09:38:53.935Z,76.18
2022-09-20T09:39:53.912Z,75.17
2022-09-20T09:40:53.880Z,74.22
2022-09-20T09:41:53.887Z,75.34
2022-09-20T09:42:53.946Z,73.89
2022-09-20T09:43:53.921Z,73.18
2022-09-20T09:44:53.832Z,72.48
2022-09-20T09:45:53.908Z,72.85
2022-09-20T09:46:53.824Z,72.24
2022-09-20T09:47:53.843Z,70.93
2022-09-20T09:48:53.800Z,70.53
2022-09-20T09:49:59.014Z,71.73
2022-09-20T09:50:54.810Z,72.34
2022-09-20T09:51:53.785Z,72.11
2022-09-20T09:52:53.749Z,70.93
2022-09-20T09:53:53.749Z,71.23
2022-09-20T09:54:53.727Z,71.64
2022-09-20T09:55:53.711Z,71.44
2022-09-20T09:56:53.732Z,70.89
2022-09-20T09:57:53.697Z,70.32
2022-09-20T09:58:53.720Z,70.53
2022-09-20T09:59:53.665Z,71.23
2022-09-20T10:00:53.758Z,71.33
2022-09-20T10:01:53.748Z,71.73
2022-09-20T10:02:53.676Z,71.64
2022-09-20T10:03:53.663Z,72.14
2022-09-20T10:04:53.597Z,72.14
2022-09-20T10:05:53.604Z,72.75
2022-09-20T10:06:53.577Z,72.11
2022-09-20T10:07:53.600Z,72.07
2022-09-20T10:08:53.591Z,71.03
2022-09-20T10:09:53.569Z,70.12
2022-09-20T10:10:53.534Z,68.98
2022-09-20T10:11:53.526Z,66.91
2022-09-20T10:12:53.528Z,66.50
2022-09-20T10:13:53.549Z,66.50
2022-09-20T10:14:53.554Z,67.34
2022-09-20T10:15:53.478Z,66.33
2022-09-20T10:16:53.561Z,67.37
2022-09-20T10:17:53.487Z,67.68
2022-09-20T10:18:53.472Z,68.51
2022-09-20T10:19:53.480Z,69.21
2022-09-20T10:20:53.449Z,69.12
2022-09-20T10:21:53.421Z,69.05
2022-09-20T10:23:24.163Z,69.68
2022-09-20T10:24:08.856Z,69.48
2022-09-20T10:24:54.374Z,69.59
2022-09-20T10:25:53.372Z,69.92
2022-09-20T10:26:53.383Z,69.62
2022-09-20T10:27:53.347Z,70.59
2022-09-20T10:28:53.362Z,71.50
2022-09-20T10:29:53.328Z,71.17
2022-09-20T10:30:53.332Z,70.73
2022-09-20T10:31:53.312Z,70.12
2022-09-20T10:32:53.312Z,69.89
2022-09-20T10:33:53.286Z,67.77
2022-09-20T10:34:53.313Z,67.68
2022-09-20T10:35:53.267Z,69.01
2022-09-20T10:36:53.249Z,70.02
2022-09-20T10:37:53.238Z,70.42
2022-09-20T10:38:53.321Z,72.38
2022-09-20T10:39:53.244Z,73.01
2022-09-20T10:40:53.203Z,75.43
2022-09-20T10:41:53.189Z,76.18
2022-09-20T10:42:53.190Z,75.37
2022-09-20T10:43:53.263Z,76.42
2022-09-20T10:44:53.210Z,76.45
2022-09-20T10:46:14.379Z,78.57
2022-09-20T10:46:54.202Z,81.54
2022-09-20T10:47:53.126Z,81.64
2022-09-20T10:48:53.116Z,81.78
2022-09-20T10:49:53.135Z,84.25
2022-09-20T10:50:53.111Z,84.65
2022-09-20T10:51:53.086Z,84.79
2022-09-20T10:52:53.085Z,85.30
2022-09-20T10:53:53.070Z,84.53
2022-09-20T10:54:53.065Z,85.38
2022-09-20T10:55:53.045Z,85.68
2022-09-20T10:56:53.023Z,84.91
2022-09-20T10:57:53.028Z,85.82
2022-09-20T10:58:53.132Z,86.33
2022-09-20T10:59:53.017Z,85.86
2022-09-20T11:00:53.065Z,86.27
2022-09-20T11:01:52.999Z,85.15
2022-09-20T11:02:52.949Z,85.80
2022-09-20T11:03:52.973Z,85.86
2022-09-20T11:04:52.960Z,86.98
2022-09-20T11:05:52.928Z,87.28
2022-09-20T11:06:52.903Z,87.73
2022-09-20T11:07:52.896Z,83.77
2022-09-20T11:08:52.893Z,83.77
2022-09-20T11:09:52.944Z,85.13
2022-09-20T11:10:52.861Z,85.33
2022-09-20T11:11:52.868Z,85.47
2022-09-20T11:12:52.839Z,86.83
2022-09-20T11:13:52.911Z,86.74
2022-09-20T11:14:52.858Z,87.14
2022-09-20T11:15:52.808Z,86.68
2022-09-20T11:16:52.870Z,87.23
2022-09-20T11:17:52.781Z,87.53
2022-09-20T11:18:52.932Z,87.53
2022-09-20T11:19:52.820Z,88.34
2022-09-20T11:20:52.748Z,88.59
2022-09-20T11:21:52.759Z,88.39
2022-09-20T11:22:52.743Z,88.48
2022-09-20T11:23:52.712Z,88.73
2022-09-20T11:24:52.755Z,88.73
2022-09-20T11:25:52.687Z,89.44
2022-09-20T11:26:52.677Z,90.05
2022-09-20T11:27:52.842Z,90.20
2022-09-20T11:28:52.660Z,91.83
2022-09-20T11:29:52.687Z,92.40
2022-09-20T11:30:52.627Z,92.33
2022-09-20T11:31:52.712Z,92.33
2022-09-20T11:32:52.624Z,92.33
2022-09-20T11:33:52.714Z,92.79
2022-09-20T11:34:52.595Z,92.68
2022-09-20T11:35:52.569Z,93.40
2022-09-20T11:36:52.566Z,93.29
2022-09-20T11:37:52.549Z,93.50
2022-09-20T11:38:53.516Z,93.60
2022-09-20T11:39:52.540Z,93.60
2022-09-20T11:40:52.518Z,93.50
2022-09-20T11:41:52.521Z,94.42
2022-09-20T11:42:52.489Z,94.52
2022-09-20T11:43:52.501Z,93.60
2022-09-20T11:44:52.493Z,93.50
2022-09-20T11:45:52.490Z,93.80
2022-09-20T11:46:52.464Z,93.60
2022-09-20T11:47:55.303Z,93.19
2022-09-20T11:48:52.518Z,93.09
2022-09-20T11:49:52.429Z,93.50
2022-09-20T11:50:52.441Z,93.09
2022-09-20T11:51:52.388Z,93.80
2022-09-20T11:52:52.373Z,93.40
2022-09-20T11:53:52.363Z,93.40
2022-09-20T11:54:52.370Z,93.50
2022-09-20T11:55:52.336Z,93.09
2022-09-20T11:56:52.368Z,93.50
2022-09-20T11:57:52.344Z,93.15
2022-09-20T11:58:52.321Z,93.76
2022-09-20T11:59:52.342Z,93.76
2022-09-20T12:00:52.300Z,93.55
2022-09-20T12:01:52.332Z,93.45
2022-09-20T12:02:52.445Z,93.31
2022-09-20T12:04:04.071Z,93.82
2022-09-20T12:04:53.280Z,94.32
2022-09-20T12:05:52.255Z,94.23
2022-09-20T12:06:52.225Z,94.28
2022-09-20T12:07:52.218Z,94.18
2022-09-20T12:08:52.202Z,93.47
2022-09-20T12:09:52.266Z,93.52
2022-09-20T12:10:52.197Z,93.43
2022-09-20T12:11:52.164Z,93.43
2022-09-20T12:12:52.145Z,93.12
2022-09-20T12:13:52.151Z,92.97
2022-09-20T12:14:52.158Z,93.07
2022-09-20T12:15:52.152Z,93.38
2022-09-20T12:16:52.153Z,93.95
2022-09-20T12:17:52.089Z,93.90
2022-09-20T12:18:52.078Z,94.31
2022-09-20T12:19:52.091Z,94.21
2022-09-20T12:20:52.062Z,94.00
2022-09-20T12:21:52.074Z,93.65
2022-09-20T12:22:52.032Z,94.12
2022-09-20T12:23:52.048Z,93.71
2022-09-20T12:24:52.088Z,93.77
2022-09-20T12:25:52.038Z,93.77
2022-09-20T12:26:51.994Z,93.73
2022-09-20T12:27:51.974Z,93.32
2022-09-20T12:28:51.978Z,92.77
2022-09-20T12:29:51.987Z,90.34
2022-09-20T12:30:51.950Z,90.34
2022-09-20T12:31:51.987Z,90.70
2022-09-20T12:32:51.928Z,92.02
2022-09-20T12:33:51.945Z,91.31
2022-09-20T12:34:51.944Z,90.80
2022-09-20T12:35:51.892Z,90.36
2022-09-20T12:36:51.875Z,89.85
2022-09-20T12:37:51.867Z,88.84
2022-09-20T12:38:51.856Z,89.00
2022-09-20T12:39:51.882Z,88.39
2022-09-20T12:40:51.872Z,88.19
2022-09-20T12:41:51.827Z,87.88
2022-09-20T12:42:51.817Z,88.09
2022-09-20T12:43:51.801Z,86.47
2022-09-20T12:44:51.821Z,84.81
2022-09-20T12:45:51.795Z,85.11
2022-09-20T12:46:51.768Z,84.71
2022-09-20T12:47:51.794Z,82.59
2022-09-20T12:48:51.771Z,82.18
2022-09-20T12:49:51.746Z,81.03
2022-09-20T12:50:51.719Z,81.17
2022-09-20T12:51:51.715Z,81.13
2022-09-20T12:52:51.693Z,80.06
2022-09-20T12:53:51.677Z,78.20